Archiv-/Tagesdaten

--Timestamp---	Temp	Chill	HIndex	Humid	Dewpt	 Wind 	HiWind	WindDir	Rain 	Barom	Solar	 ET  	 UV 
--------------	----	-----	------	-----	-----	------	------	-------	-----	-----	-----	-----	----
20100320 00:00	6.5	4.9	6.5	58	-1.2	8	11	202	0.0	1018.0	0	0.051	0.0
20100320 00:05	6.4	5.2	6.4	59	-1.0	6	11	202	0.0	1017.8	0	0.000	0.0
20100320 00:10	6.3	5.1	6.3	59	-1.1	6	11	202	0.0	1017.8	0	0.000	0.0
20100320 00:15	6.4	5.2	6.4	58	-1.3	6	14	202	0.0	1017.7	0	0.000	0.0
20100320 00:20	6.4	5.3	6.4	57	-1.5	6	13	202	0.0	1017.7	0	0.000	0.0
20100320 00:25	6.4	4.8	6.4	56	-1.7	8	14	202	0.0	1017.7	0	0.000	0.0
20100320 00:30	6.5	5.3	6.5	56	-1.6	6	10	202	0.0	1017.7	0	0.000	0.0
20100320 00:35	6.5	5.3	6.5	57	-1.4	6	11	180	0.0	1017.7	0	0.000	0.0
20100320 00:40	6.4	6.4	6.4	57	-1.5	5	10	180	0.0	1017.8	0	0.000	0.0
20100320 00:45	6.4	6.4	6.4	57	-1.5	5	10	180	0.0	1017.7	0	0.000	0.0
20100320 00:50	6.3	4.6	6.3	58	-1.4	8	11	180	0.0	1017.7	0	0.000	0.0
20100320 00:55	6.2	6.2	6.2	58	-1.5	5	11	180	0.0	1017.7	0	0.000	0.0
20100320 01:00	6.1	4.8	6.1	59	-1.3	6	14	180	0.0	1017.7	0	0.051	0.0
20100320 01:05	6.1	4.8	6.1	58	-1.6	6	11	180	0.0	1017.7	0	0.000	0.0
20100320 01:10	6.1	6.1	6.1	58	-1.6	5	10	180	0.0	1017.7	0	0.000	0.0
20100320 01:15	6.1	6.1	6.1	57	-1.8	5	10	180	0.0	1017.8	0	0.000	0.0
20100320 01:20	6.1	4.9	6.1	57	-1.8	6	11	202	0.0	1017.8	0	0.000	0.0
20100320 01:25	6.1	4.9	6.1	57	-1.8	6	14	202	0.0	1017.7	0	0.000	0.0
20100320 01:30	6.1	4.4	6.1	57	-1.8	8	14	180	0.0	1017.8	0	0.000	0.0
20100320 01:35	6.1	4.4	6.1	57	-1.8	8	14	180	0.0	1017.7	0	0.000	0.0
20100320 01:40	6.0	3.9	6.0	57	-1.9	10	14	180	0.0	1017.6	0	0.000	0.0
20100320 01:45	5.9	4.2	5.9	58	-1.7	8	13	180	0.0	1017.6	0	0.000	0.0
20100320 01:50	5.9	4.2	5.9	57	-1.9	8	14	180	0.0	1017.5	0	0.000	0.0
20100320 01:55	6.0	3.9	6.0	57	-1.9	10	16	180	0.0	1017.4	0	0.000	0.0
20100320 02:00	6.1	4.4	6.1	56	-2.0	8	16	180	0.0	1017.3	0	0.051	0.0
20100320 02:05	6.2	4.1	6.2	56	-2.0	10	14	180	0.0	1017.1	0	0.000	0.0
20100320 02:10	6.2	4.6	6.2	56	-1.9	8	14	180	0.0	1017.1	0	0.000	0.0
20100320 02:15	6.3	4.3	6.3	56	-1.8	10	14	180	0.0	1016.9	0	0.000	0.0
20100320 02:20	6.3	4.7	6.3	55	-2.0	8	14	180	0.0	1016.9	0	0.000	0.0
20100320 02:25	6.4	4.8	6.4	55	-2.0	8	13	180	0.0	1016.9	0	0.000	0.0
20100320 02:30	6.4	4.8	6.4	55	-1.9	8	14	180	0.0	1016.8	0	0.000	0.0
20100320 02:35	6.4	5.2	6.4	55	-2.0	6	10	180	0.0	1016.8	0	0.000	0.0
20100320 02:40	6.3	4.7	6.3	56	-1.8	8	11	180	0.0	1016.7	0	0.000	0.0
20100320 02:45	6.3	4.7	6.3	56	-1.8	8	14	180	0.0	1016.6	0	0.000	0.0
20100320 02:50	6.3	4.7	6.3	56	-1.8	8	14	180	0.0	1016.6	0	0.000	0.0
20100320 02:55	6.3	5.1	6.3	56	-1.8	6	11	180	0.0	1016.6	0	0.000	0.0
20100320 03:00	6.4	5.2	6.4	56	-1.7	6	13	180	0.0	1016.4	0	0.051	0.0
20100320 03:05	6.4	4.8	6.4	56	-1.7	8	11	180	0.0	1016.4	0	0.000	0.0
20100320 03:10	6.4	5.2	6.4	56	-1.7	6	11	180	0.0	1016.4	0	0.000	0.0
20100320 03:15	6.4	5.3	6.4	55	-1.9	6	11	180	0.0	1016.4	0	0.000	0.0
20100320 03:20	6.5	5.3	6.5	55	-1.9	6	11	180	0.0	1016.3	0	0.000	0.0
20100320 03:25	6.5	5.3	6.5	55	-1.9	6	11	180	0.0	1016.3	0	0.000	0.0
20100320 03:30	6.4	6.4	6.4	55	-1.9	5	8	180	0.0	1016.3	0	0.000	0.0
20100320 03:35	6.4	5.2	6.4	55	-2.0	6	11	202	0.0	1016.3	0	0.000	0.0
20100320 03:40	6.5	5.3	6.5	54	-2.1	6	11	202	0.0	1016.3	0	0.000	0.0
20100320 03:45	6.6	5.0	6.6	54	-2.1	8	14	180	0.0	1016.2	0	0.000	0.0
20100320 03:50	6.6	5.0	6.6	55	-1.8	8	11	180	0.0	1016.2	0	0.000	0.0
20100320 03:55	6.4	5.3	6.4	55	-1.9	6	13	180	0.0	1016.1	0	0.000	0.0
20100320 04:00	6.4	5.2	6.4	56	-1.7	6	10	180	0.0	1016.2	0	0.051	0.0
20100320 04:05	6.3	6.3	6.3	56	-1.8	5	8	180	0.0	1016.3	0	0.000	0.0
20100320 04:10	6.2	6.2	6.2	56	-1.9	5	8	180	0.0	1016.2	0	0.000	0.0
20100320 04:15	6.2	6.2	6.2	56	-2.0	5	10	180	0.0	1016.2	0	0.000	0.0
20100320 04:20	6.2	5.0	6.2	55	-2.1	6	13	180	0.0	1016.2	0	0.000	0.0
20100320 04:25	6.4	4.8	6.4	55	-1.9	8	11	180	0.0	1016.2	0	0.000	0.0
20100320 04:30	6.6	5.4	6.6	54	-2.1	6	11	180	0.0	1016.1	0	0.000	0.0
20100320 04:35	6.8	5.2	6.8	54	-1.9	8	16	158	0.0	1016.0	0	0.000	0.0
20100320 04:40	6.9	5.4	6.9	53	-2.0	8	11	158	0.0	1016.0	0	0.000	0.0
20100320 04:45	7.1	5.6	7.1	53	-1.9	8	13	180	0.0	1015.8	0	0.000	0.0
20100320 04:50	7.2	6.1	7.2	53	-1.8	6	14	180	0.0	1015.9	0	0.000	0.0
20100320 04:55	7.2	5.7	7.2	54	-1.5	8	14	180	0.0	1015.8	0	0.000	0.0
20100320 05:00	7.2	5.7	7.2	54	-1.5	8	14	180	0.0	1015.8	0	0.051	0.0
20100320 05:05	7.2	5.7	7.2	54	-1.5	8	14	180	0.0	1015.9	0	0.000	0.0
20100320 05:10	7.2	5.7	7.2	54	-1.5	8	14	180	0.0	1015.9	0	0.000	0.0
20100320 05:15	7.2	6.1	7.2	54	-1.5	6	11	180	0.0	1015.9	0	0.000	0.0
20100320 05:20	7.1	6.0	7.1	54	-1.6	6	11	180	0.0	1015.9	0	0.000	0.0
20100320 05:25	7.1	6.0	7.1	54	-1.6	6	11	180	0.0	1016.0	0	0.000	0.0
20100320 05:30	7.1	5.6	7.1	54	-1.6	8	14	180	0.0	1015.9	0	0.000	0.0
20100320 05:35	7.1	6.0	7.1	55	-1.3	6	11	180	0.0	1016.0	0	0.000	0.0
20100320 05:40	7.1	6.0	7.1	54	-1.6	6	13	180	0.0	1016.0	0	0.000	0.0
20100320 05:45	7.2	5.7	7.2	54	-1.5	8	14	202	0.0	1016.0	0	0.000	0.0
20100320 05:50	7.2	5.7	7.2	54	-1.5	8	14	180	0.0	1016.0	0	0.000	0.0
20100320 05:55	7.2	6.1	7.2	55	-1.3	6	13	180	0.0	1016.1	0	0.000	0.0
20100320 06:00	7.2	6.1	7.2	55	-1.3	6	13	202	0.0	1016.1	0	0.051	0.0
20100320 06:05	7.2	7.2	7.2	55	-1.3	3	10	225	0.0	1016.6	0	0.000	0.0
20100320 06:10	7.1	7.1	7.1	56	-1.1	0	3	225	0.0	1016.5	0	0.000	0.0
20100320 06:15	7.1	7.1	7.1	56	-1.1	2	5	225	0.0	1016.6	0	0.000	0.0
20100320 06:20	7.1	7.1	7.1	57	-0.9	5	6	225	0.0	1016.6	0	0.000	0.0
20100320 06:25	6.9	6.9	6.9	57	-1.0	3	6	225	0.0	1016.6	0	0.000	0.0
20100320 06:30	6.9	6.9	6.9	57	-1.0	5	10	225	0.0	1016.6	2	0.000	0.0
20100320 06:35	6.9	6.9	6.9	57	-1.0	3	6	225	0.0	1016.7	6	0.000	0.0
20100320 06:40	7.0	5.9	7.0	58	-0.7	6	10	225	0.0	1016.7	11	0.000	0.0
20100320 06:45	7.0	7.0	7.0	58	-0.7	5	11	225	0.0	1016.7	18	0.000	0.0
20100320 06:50	7.1	7.1	7.1	58	-0.6	5	10	225	0.0	1016.8	25	0.000	0.0
20100320 06:55	7.2	7.2	7.2	58	-0.5	3	6	225	0.0	1016.8	32	0.000	0.0
20100320 07:00	7.2	7.2	7.2	58	-0.5	2	5	225	0.0	1016.7	44	0.025	0.0
20100320 07:05	7.4	7.4	7.4	58	-0.3	3	8	225	0.0	1016.8	65	0.000	0.0
20100320 07:10	7.6	7.6	7.6	58	-0.2	3	8	225	0.0	1016.8	80	0.000	0.0
20100320 07:15	7.8	7.8	7.8	57	-0.2	5	8	225	0.0	1016.9	53	0.000	0.0
20100320 07:20	8.0	8.0	8.0	57	0.0	5	8	225	0.0	1017.0	31	0.000	0.0
20100320 07:25	8.1	7.2	8.1	57	0.1	6	11	225	0.0	1017.0	24	0.000	0.0
20100320 07:30	8.2	7.3	8.2	58	0.4	6	10	225	0.0	1017.1	20	0.000	0.0
20100320 07:35	8.3	8.3	8.3	60	1.0	5	10	225	0.0	1017.0	22	0.000	0.0
20100320 07:40	8.3	7.4	8.3	60	1.0	6	10	225	0.0	1017.0	41	0.000	0.0
20100320 07:45	8.4	8.4	8.4	60	1.1	5	10	225	0.0	1017.0	64	0.000	0.0
20100320 07:50	8.5	8.5	8.5	60	1.2	5	6	225	0.0	1017.1	68	0.000	0.0
20100320 07:55	8.6	8.6	8.6	60	1.3	5	8	225	0.0	1017.2	71	0.000	0.0
20100320 08:00	8.8	8.8	8.8	58	1.0	5	8	225	0.0	1017.1	77	0.051	0.0
20100320 08:05	8.9	8.2	8.9	58	1.1	6	10	225	0.0	1017.3	83	0.000	0.0
20100320 08:10	9.1	8.3	9.1	57	1.0	6	11	225	0.0	1017.4	84	0.000	0.0
20100320 08:15	9.2	8.0	9.2	57	1.1	8	13	225	0.0	1017.4	80	0.000	0.0
20100320 08:20	9.3	8.2	9.3	56	1.0	8	14	202	0.0	1017.4	82	0.000	0.0
20100320 08:25	9.4	8.0	9.4	55	0.8	10	18	202	0.0	1017.3	101	0.000	0.0
20100320 08:30	9.6	8.5	9.6	55	1.0	8	14	202	0.0	1017.3	103	0.000	0.5
20100320 08:35	9.7	8.6	9.7	55	1.1	8	16	202	0.0	1017.3	111	0.000	0.5
20100320 08:40	9.8	8.7	9.8	55	1.2	8	16	202	0.0	1017.2	116	0.000	0.6
20100320 08:45	9.9	8.9	9.9	55	1.3	8	16	202	0.0	1017.1	90	0.000	0.4
20100320 08:50	10.1	10.1	10.1	55	1.4	8	18	202	0.0	1017.1	80	0.000	0.2
20100320 08:55	10.2	10.2	10.2	55	1.5	6	11	202	0.0	1017.1	126	0.000	0.6
20100320 09:00	10.4	10.4	10.4	54	1.5	8	14	202	0.0	1017.2	146	0.076	0.8
20100320 09:05	10.6	10.6	10.6	54	1.7	8	14	202	0.0	1017.3	166	0.000	0.9
20100320 09:10	10.8	10.8	10.8	55	2.2	8	14	202	0.0	1017.3	220	0.000	1.1
20100320 09:15	11.1	11.1	11.1	55	2.4	8	14	202	0.0	1017.3	230	0.000	1.1
20100320 09:20	11.4	11.4	11.4	55	2.7	6	13	225	0.0	1017.3	199	0.000	0.9
20100320 09:25	11.8	11.8	11.8	54	2.8	10	18	225	0.0	1017.1	168	0.000	0.9
20100320 09:30	12.2	12.2	12.2	53	2.9	10	19	225	0.0	1017.1	152	0.000	0.9
20100320 09:35	12.4	12.4	12.4	52	2.9	11	19	225	0.0	1017.2	183	0.000	1.0
20100320 09:40	12.7	12.7	12.7	53	3.4	10	19	248	0.0	1017.1	224	0.000	1.2
20100320 09:45	12.9	12.9	12.9	55	4.1	10	21	270	0.0	1017.0	195	0.000	1.2
20100320 09:50	13.1	13.1	13.1	57	4.7	10	21	248	0.0	1017.1	171	0.000	1.1
20100320 09:55	13.1	13.1	13.1	58	5.0	13	21	270	0.0	1017.1	197	0.000	1.2
20100320 10:00	13.2	13.2	13.2	58	5.1	11	19	270	0.0	1017.0	166	0.152	1.1
20100320 10:05	13.3	13.3	13.3	59	5.4	11	24	270	0.0	1017.0	142	0.000	0.9
20100320 10:10	13.3	13.3	13.3	59	5.4	11	19	270	0.0	1017.0	128	0.000	0.9
20100320 10:15	13.3	13.3	13.3	59	5.4	11	19	270	0.0	1017.0	141	0.000	0.9
20100320 10:20	13.3	13.3	13.3	60	5.7	11	23	270	0.0	1017.0	140	0.000	0.9
20100320 10:25	13.3	13.3	13.3	61	5.9	10	23	270	0.0	1017.0	133	0.000	0.9
20100320 10:30	13.3	13.3	13.3	61	6.0	11	21	270	0.0	1017.1	119	0.000	0.8
20100320 10:35	13.3	13.3	13.3	60	5.7	13	23	248	0.0	1017.1	118	0.000	0.9
20100320 10:40	13.3	13.3	13.3	61	6.0	10	18	225	0.0	1017.1	127	0.000	1.0
20100320 10:45	13.4	13.4	13.4	61	6.0	11	21	248	0.0	1016.9	153	0.000	1.2
20100320 10:50	13.5	13.5	13.5	61	6.1	13	26	248	0.0	1017.0	196	0.000	1.4
20100320 10:55	13.6	13.6	13.6	61	6.2	14	26	270	0.0	1016.9	168	0.000	1.3
20100320 11:00	13.6	13.6	13.6	61	6.2	14	31	248	0.0	1017.0	131	0.127	1.0
20100320 11:05	13.5	13.5	13.5	60	5.9	14	23	270	0.0	1016.8	159	0.000	1.3
20100320 11:10	13.6	13.6	13.6	61	6.2	13	24	248	0.0	1017.0	208	0.000	1.7
20100320 11:15	13.6	13.6	13.6	60	6.0	16	29	248	0.0	1016.9	193	0.000	1.7
20100320 11:20	13.7	13.7	13.7	60	6.0	16	27	270	0.0	1016.8	202	0.000	1.7
20100320 11:25	13.7	13.7	13.7	60	6.1	16	26	270	0.0	1016.7	221	0.000	1.8
20100320 11:30	13.8	13.8	13.8	60	6.2	16	26	270	0.0	1016.7	170	0.000	1.5
20100320 11:35	13.8	13.8	13.8	60	6.2	14	23	270	0.0	1016.7	216	0.000	1.7
20100320 11:40	13.9	13.9	13.9	60	6.3	14	26	270	0.0	1016.6	210	0.000	1.7
20100320 11:45	14.1	14.1	14.1	60	6.5	11	19	270	0.0	1016.6	238	0.000	1.9
20100320 11:50	14.2	14.2	14.2	58	6.1	14	24	270	0.0	1016.5	261	0.000	2.0
20100320 11:55	14.3	14.3	14.3	58	6.2	11	21	270	0.0	1016.4	241	0.000	1.9
20100320 12:00	14.4	14.4	14.4	58	6.3	8	16	270	0.0	1016.4	239	0.178	2.0
20100320 12:05	14.6	14.6	14.6	59	6.7	8	16	248	0.0	1016.5	273	0.000	2.2
20100320 12:10	14.9	14.9	14.9	57	6.4	8	19	292	0.0	1016.4	289	0.000	2.3
20100320 12:15	15.0	15.0	15.0	57	6.5	11	21	248	0.0	1016.4	311	0.000	2.4
20100320 12:20	15.0	15.0	15.0	56	6.3	11	23	270	0.0	1016.4	308	0.000	2.5
20100320 12:25	15.2	15.2	15.2	56	6.4	13	19	270	0.0	1016.3	267	0.000	2.5
20100320 12:30	15.3	15.3	15.3	55	6.3	13	23	270	0.0	1016.3	399	0.000	3.1
20100320 12:35	15.7	15.7	15.7	53	6.1	14	26	248	0.0	1016.2	724	0.000	3.9
20100320 12:40	16.0	16.0	16.0	54	6.7	13	23	270	0.0	1016.0	390	0.000	3.4
20100320 12:45	16.2	16.2	16.2	52	6.3	16	29	270	0.0	1016.0	436	0.000	3.0
20100320 12:50	16.2	16.2	16.2	51	6.0	16	27	248	0.0	1015.8	369	0.000	3.0
20100320 12:55	16.3	16.3	16.3	52	6.5	14	32	270	0.0	1015.7	410	0.000	3.2
20100320 13:00	16.6	16.6	16.6	52	6.7	14	24	270	0.0	1015.7	540	0.279	3.2
20100320 13:05	16.8	16.8	16.8	51	6.6	18	27	270	0.0	1015.7	549	0.000	3.2
20100320 13:10	17.1	17.1	17.1	50	6.5	14	24	270	0.0	1015.4	670	0.000	3.6
20100320 13:15	17.2	17.2	17.2	50	6.7	16	27	270	0.0	1015.3	544	0.000	3.4
20100320 13:20	17.5	17.5	17.5	50	7.0	13	23	270	0.0	1015.3	577	0.000	3.4
20100320 13:25	17.6	17.6	17.6	48	6.4	14	29	248	0.0	1015.1	592	0.000	3.5
20100320 13:30	17.7	17.7	17.7	49	6.8	14	26	270	0.0	1015.0	472	0.000	2.9
20100320 13:35	17.7	17.7	17.7	48	6.6	14	23	270	0.0	1014.9	381	0.000	2.6
20100320 13:40	17.6	17.6	17.6	49	6.8	14	32	270	0.0	1014.9	329	0.000	2.4
20100320 13:45	17.6	17.6	17.6	49	6.8	13	23	292	0.0	1014.8	443	0.000	2.6
20100320 13:50	17.7	17.7	17.7	50	7.1	16	27	270	0.0	1014.8	474	0.000	2.8
20100320 13:55	17.7	17.7	17.7	48	6.6	18	32	270	0.0	1014.9	480	0.000	3.0
20100320 14:00	18.1	18.1	18.1	49	7.2	19	31	270	0.0	1014.7	659	0.381	3.3
20100320 14:05	18.4	18.4	18.4	48	7.2	16	27	270	0.0	1014.5	611	0.000	3.1
20100320 14:10	18.5	18.5	18.5	47	7.0	21	35	270	0.0	1014.6	650	0.000	2.7
20100320 14:15	18.3	18.3	18.3	48	7.1	21	34	270	0.0	1014.5	453	0.000	2.7
20100320 14:20	18.0	18.0	18.0	49	7.1	19	31	270	0.0	1014.6	265	0.000	2.1
20100320 14:25	17.8	17.8	17.8	50	7.3	16	26	270	0.0	1014.5	277	0.000	2.1
20100320 14:30	17.7	17.7	17.7	49	6.8	19	29	270	0.0	1014.6	197	0.000	1.8
20100320 14:35	17.6	17.6	17.6	50	7.0	14	31	270	0.0	1014.5	234	0.000	1.9
20100320 14:40	17.8	17.8	17.8	51	7.5	16	27	292	0.0	1014.4	481	0.000	2.2
20100320 14:45	18.2	18.2	18.2	49	7.3	19	31	270	0.0	1014.3	482	0.000	2.3
20100320 14:50	18.5	18.5	18.5	49	7.6	11	21	270	0.0	1014.2	477	0.000	2.2
20100320 14:55	18.7	18.7	18.7	48	7.4	13	23	270	0.0	1014.2	343	0.000	1.9
20100320 15:00	18.5	18.5	18.5	49	7.6	11	21	270	0.0	1014.3	227	0.330	1.5
20100320 15:05	18.2	18.2	18.2	50	7.6	11	23	292	0.0	1014.3	252	0.000	1.4
20100320 15:10	18.1	18.1	18.1	51	7.8	10	18	292	0.0	1014.4	241	0.000	1.4
20100320 15:15	18.2	18.2	18.2	52	8.1	10	18	315	0.0	1014.3	289	0.000	1.5
20100320 15:20	18.2	18.2	18.2	51	7.9	13	21	270	0.0	1014.4	309	0.000	1.4
20100320 15:25	18.2	18.2	18.2	50	7.6	14	23	292	0.0	1014.4	301	0.000	1.3
20100320 15:30	18.2	18.2	18.2	51	7.9	10	18	292	0.0	1014.3	254	0.000	1.3
20100320 15:35	18.0	18.0	18.0	51	7.7	10	19	292	0.0	1014.2	222	0.000	1.2
20100320 15:40	17.9	17.9	17.9	52	7.9	6	16	315	0.0	1014.1	218	0.000	1.1
20100320 15:45	17.9	17.9	17.9	52	7.9	6	16	292	0.0	1014.2	206	0.000	1.0
20100320 15:50	17.8	17.8	17.8	52	7.8	8	16	292	0.0	1014.2	174	0.000	0.9
20100320 15:55	17.8	17.8	17.8	52	7.8	8	16	315	0.0	1014.2	171	0.000	0.8
20100320 16:00	17.6	17.6	17.6	52	7.6	8	16	292	0.0	1014.1	157	0.203	0.7
20100320 16:05	17.6	17.6	17.6	52	7.6	6	11	292	0.0	1014.0	163	0.000	0.7
20100320 16:10	17.5	17.5	17.5	54	8.1	8	13	315	0.0	1014.1	157	0.000	0.7
20100320 16:15	17.4	17.4	17.4	53	7.8	6	10	315	0.0	1014.1	170	0.000	0.6
20100320 16:20	17.4	17.4	17.4	54	8.0	6	10	315	0.0	1013.9	151	0.000	0.6
20100320 16:25	17.3	17.3	17.3	53	7.7	5	8	315	0.0	1013.9	127	0.000	0.6
20100320 16:30	17.3	17.3	17.3	54	7.9	5	8	292	0.0	1014.1	105	0.000	0.2
20100320 16:35	17.3	17.3	17.3	54	7.9	5	10	292	0.0	1013.9	82	0.000	0.0
20100320 16:40	17.2	17.2	17.2	54	7.8	6	11	292	0.0	1014.1	69	0.000	0.0
20100320 16:45	17.1	17.1	17.1	54	7.7	8	21	292	0.0	1014.1	37	0.000	0.0
20100320 16:50	16.8	16.8	16.8	54	7.5	13	26	270	0.0	1014.2	35	0.000	0.0
20100320 16:55	16.6	16.6	16.6	55	7.5	11	21	270	0.0	1014.2	34	0.000	0.0
20100320 17:00	16.4	16.4	16.4	56	7.6	10	18	270	0.0	1014.2	20	0.102	0.0
20100320 17:05	16.2	16.2	16.2	57	7.7	8	16	270	0.0	1014.2	19	0.000	0.0
20100320 17:10	16.1	16.1	16.1	57	7.5	8	18	270	0.0	1014.2	16	0.000	0.0
20100320 17:15	15.9	15.9	15.9	58	7.7	10	19	270	0.0	1014.2	18	0.000	0.0
20100320 17:20	15.8	15.8	15.8	58	7.6	10	18	270	0.0	1014.3	35	0.000	0.0
20100320 17:25	15.8	15.8	15.8	58	7.5	8	16	270	0.0	1014.4	36	0.000	0.0
20100320 17:30	15.8	15.8	15.8	57	7.3	10	24	292	0.0	1014.4	18	0.000	0.0
20100320 17:35	15.7	15.7	15.7	58	7.5	8	16	270	0.0	1014.4	17	0.000	0.0
20100320 17:40	15.7	15.7	15.7	59	7.7	6	11	292	0.0	1014.5	12	0.000	0.0
20100320 17:45	15.6	15.6	15.6	60	7.8	6	11	292	0.0	1014.6	11	0.000	0.0
20100320 17:50	15.4	15.4	15.4	60	7.7	6	11	270	0.0	1014.8	4	0.000	0.0
20100320 17:55	15.2	15.2	15.2	62	7.9	6	11	270	0.0	1014.9	0	0.000	0.0
20100320 18:00	15.0	15.0	15.0	62	7.8	6	14	270	0.0	1014.9	0	0.051	0.0
20100320 18:05	15.0	15.0	15.0	62	7.8	6	14	270	0.0	1014.9	0	0.000	0.0
20100320 18:10	14.9	14.9	14.9	63	7.9	6	10	270	0.0	1014.9	0	0.000	0.0
20100320 18:15	14.8	14.8	14.8	64	8.0	8	11	270	0.0	1014.9	0	0.000	0.0
20100320 18:20	14.7	14.7	14.7	65	8.2	6	10	270	0.0	1015.0	0	0.000	0.0
20100320 18:25	14.6	14.6	14.6	65	8.0	3	6	270	0.0	1015.0	0	0.000	0.0
20100320 18:30	14.4	14.4	14.4	65	7.9	3	6	270	0.0	1015.0	0	0.000	0.0
20100320 18:35	14.4	14.4	14.4	65	7.9	3	5	270	0.0	1015.1	0	0.000	0.0
20100320 18:40	14.3	14.3	14.3	65	7.8	6	19	270	0.0	1015.1	0	0.000	0.0
20100320 18:45	14.3	14.3	14.3	65	7.8	5	10	248	0.0	1015.1	0	0.000	0.0
20100320 18:50	14.3	14.3	14.3	65	7.8	3	8	248	0.0	1015.1	0	0.000	0.0
20100320 18:55	14.2	14.2	14.2	65	7.7	3	6	248	0.0	1015.1	0	0.000	0.0
20100320 19:00	14.2	14.2	14.2	66	7.9	5	6	248	0.0	1015.2	0	0.025	0.0
20100320 19:05	14.1	14.1	14.1	66	7.9	5	8	248	0.0	1015.2	0	0.000	0.0
20100320 19:10	14.1	14.1	14.1	66	7.8	5	10	248	0.0	1015.3	0	0.000	0.0
20100320 19:15	14.0	14.0	14.0	66	7.7	5	8	270	0.0	1015.3	0	0.000	0.0
20100320 19:20	13.8	13.8	13.8	67	7.8	5	8	270	0.0	1015.4	0	0.000	0.0
20100320 19:25	13.7	13.7	13.7	68	7.9	6	10	270	0.0	1015.4	0	0.000	0.0
20100320 19:30	13.6	13.6	13.6	68	7.8	6	10	270	0.0	1015.4	0	0.000	0.0
20100320 19:35	13.5	13.5	13.5	68	7.7	5	8	270	0.0	1015.5	0	0.000	0.0
20100320 19:40	13.5	13.5	13.5	69	7.9	6	11	270	0.0	1015.5	0	0.000	0.0
20100320 19:45	13.4	13.4	13.4	69	7.9	6	11	270	0.0	1015.6	0	0.000	0.0
20100320 19:50	13.4	13.4	13.4	69	7.9	6	11	270	0.0	1015.7	0	0.000	0.0
20100320 19:55	13.4	13.4	13.4	69	7.8	11	26	270	0.0	1015.7	0	0.000	0.0
20100320 20:00	13.4	13.4	13.4	67	7.4	14	24	292	0.0	1015.6	0	0.051	0.0
20100320 20:05	13.4	13.4	13.4	66	7.2	16	27	270	0.0	1015.5	0	0.000	0.0
20100320 20:10	13.4	13.4	13.4	67	7.4	16	26	270	0.0	1015.4	0	0.000	0.0
20100320 20:15	13.3	13.3	13.3	67	7.3	19	35	270	0.0	1015.4	0	0.000	0.0
20100320 20:20	13.1	13.1	13.1	69	7.6	13	21	270	0.0	1015.4	0	0.000	0.0
20100320 20:25	12.8	12.8	12.8	71	7.7	11	18	270	0.0	1015.4	0	0.000	0.0
20100320 20:30	12.6	12.6	12.6	72	7.6	10	19	270	0.0	1015.4	0	0.000	0.0
20100320 20:35	12.4	12.4	12.4	74	7.9	8	14	270	0.0	1015.5	0	0.000	0.0
20100320 20:40	12.2	12.2	12.2	75	7.9	8	14	270	0.0	1015.5	0	0.000	0.0
20100320 20:45	12.1	12.1	12.1	75	7.8	6	13	270	0.0	1015.5	0	0.000	0.0
20100320 20:50	12.0	12.0	12.0	75	7.7	6	11	248	0.0	1015.5	0	0.000	0.0
20100320 20:55	11.9	11.9	11.9	76	7.8	5	10	248	0.0	1015.6	0	0.000	0.0
20100320 21:00	11.9	11.9	11.9	76	7.8	6	10	248	0.0	1015.5	0	0.051	0.0
20100320 21:05	12.0	12.0	12.0	76	7.9	8	16	248	0.0	1015.2	0	0.000	0.0
20100320 21:10	12.1	12.1	12.1	76	8.0	8	18	248	0.0	1015.1	0	0.000	0.0
20100320 21:15	12.1	12.1	12.1	76	8.0	8	18	248	0.0	1015.1	0	0.000	0.0
20100320 21:20	12.1	12.1	12.1	76	8.0	6	11	248	0.0	1015.2	0	0.000	0.0
20100320 21:25	12.1	12.1	12.1	76	8.0	8	16	225	0.0	1015.3	0	0.000	0.0
20100320 21:30	12.1	12.1	12.1	75	7.8	10	18	248	0.0	1015.4	0	0.000	0.0
20100320 21:35	12.1	12.1	12.1	76	8.0	10	16	248	0.0	1015.3	0	0.000	0.0
20100320 21:40	12.1	12.1	12.1	76	8.0	11	26	248	0.0	1015.2	0	0.000	0.0
20100320 21:45	11.9	11.9	11.9	76	7.8	11	23	248	0.0	1015.1	0	0.000	0.0
20100320 21:50	11.9	11.9	11.9	76	7.8	10	21	248	0.0	1015.1	0	0.000	0.0
20100320 21:55	11.9	11.9	11.9	76	7.8	10	18	248	0.0	1015.2	0	0.000	0.0
20100320 22:00	11.9	11.9	11.9	76	7.8	10	19	248	0.0	1015.1	0	0.025	0.0
20100320 22:05	11.9	11.9	11.9	76	7.8	8	18	248	0.0	1015.1	0	0.000	0.0
20100320 22:10	11.9	11.9	11.9	76	7.8	11	18	248	0.0	1015.1	0	0.000	0.0
20100320 22:15	11.9	11.9	11.9	76	7.8	10	19	248	0.0	1015.1	0	0.000	0.0
20100320 22:20	11.9	11.9	11.9	76	7.8	10	19	248	0.0	1015.2	0	0.000	0.0
20100320 22:25	11.9	11.9	11.9	77	8.0	10	16	225	0.0	1015.3	0	0.000	0.0
20100320 22:30	11.9	11.9	11.9	77	8.0	8	14	248	0.0	1015.2	0	0.000	0.0
20100320 22:35	11.8	11.8	11.8	77	7.9	6	11	225	0.0	1015.3	0	0.000	0.0
20100320 22:40	11.6	11.6	11.6	78	7.9	6	11	225	0.0	1015.2	0	0.000	0.0
20100320 22:45	11.4	11.4	11.4	79	7.9	6	14	225	0.0	1015.2	0	0.000	0.0
20100320 22:50	11.4	11.4	11.4	79	7.9	8	14	248	0.0	1015.2	0	0.000	0.0
20100320 22:55	11.4	11.4	11.4	79	7.9	6	14	248	0.0	1015.1	0	0.000	0.0
20100320 23:00	11.4	11.4	11.4	79	7.9	10	18	248	0.0	1015.3	0	0.025	0.0
20100320 23:05	11.4	11.4	11.4	79	7.9	10	19	225	0.0	1015.1	0	0.000	0.0
20100320 23:10	11.4	11.4	11.4	79	7.9	8	16	248	0.0	1015.2	0	0.000	0.0
20100320 23:15	11.3	11.3	11.3	79	7.8	8	14	225	0.0	1015.2	0	0.000	0.0
20100320 23:20	11.3	11.3	11.3	79	7.8	10	18	248	0.0	1015.2	0	0.000	0.0
20100320 23:25	11.3	11.3	11.3	79	7.8	8	16	225	0.0	1015.2	0	0.000	0.0
20100320 23:30	11.3	11.3	11.3	79	7.8	8	14	248	0.0	1015.2	0	0.000	0.0
20100320 23:35	11.3	11.3	11.3	79	7.8	6	11	248	0.0	1015.1	0	0.000	0.0
20100320 23:40	11.3	11.3	11.3	79	7.8	8	16	248	0.0	1015.1	0	0.000	0.0
20100320 23:45	11.3	11.3	11.3	79	7.8	6	11	248	0.0	1015.0	0	0.000	0.0
20100320 23:50	11.3	11.3	11.3	79	7.8	6	14	248	0.0	1015.1	0	0.000	0.0
20100320 23:55	11.3	11.3	11.3	79	7.8	8	14	248	0.0	1015.0	0	0.000	0.0



Please note the license to use and transfer of this data:
http://creativecommons.org/licenses/by-nc-sa/3.0/deed.en

Bitte beachten sie die Lizenz zur Verwertung und Weitergabe der Daten:
http://creativecommons.org/licenses/by-nc-sa/3.0/deed.de

zurück zur Übersicht der Archivdaten (Monats und Tagesdaten)

Cookies helfen bei der Bereitstellung von Inhalten. Durch die Nutzung dieser Seiten erklärst du dich damit einverstanden, dass Cookies auf deinem Rechner gespeichert werden. Weitere Information